createdAt,value
2022-12-01T00:00:15.720Z,18.83
2022-12-01T00:02:44.966Z,21.77
2022-12-01T00:05:12.736Z,21.87
2022-12-01T00:07:40.497Z,15.20
2022-12-01T00:10:28.392Z,16.73
2022-12-01T00:12:56.383Z,19.17
2022-12-01T00:15:24.312Z,20.83
2022-12-01T00:17:53.433Z,16.97
2022-12-01T00:20:21.117Z,20.33
2022-12-01T00:22:49.270Z,19.53
2022-12-01T00:25:18.354Z,17.83
2022-12-01T00:27:48.903Z,18.83
2022-12-01T00:30:16.722Z,17.50
2022-12-01T00:32:44.427Z,17.93
2022-12-01T00:35:13.598Z,18.50
2022-12-01T00:37:41.289Z,17.43
2022-12-01T00:40:09.973Z,18.67
2022-12-01T00:42:37.634Z,17.90
2022-12-01T00:45:06.213Z,18.87
2022-12-01T00:47:33.993Z,17.73
2022-12-01T00:50:01.715Z,19.67
2022-12-01T00:52:30.811Z,18.97
2022-12-01T00:54:58.580Z,23.63
2022-12-01T00:57:26.465Z,23.50
2022-12-01T00:59:54.298Z,23.53
2022-12-01T01:02:22.042Z,25.77
2022-12-01T01:04:49.746Z,23.20
2022-12-01T01:07:17.858Z,27.90
2022-12-01T01:09:47.849Z,26.77
2022-12-01T01:14:50.279Z,28.27
2022-12-01T01:17:17.981Z,29.77
2022-12-01T01:19:46.109Z,28.73
2022-12-01T01:22:13.943Z,27.90
2022-12-01T01:24:41.818Z,27.40
2022-12-01T01:27:10.861Z,28.97
2022-12-01T01:29:39.842Z,28.93
2022-12-01T01:32:07.445Z,29.57
2022-12-01T01:34:35.177Z,32.00
2022-12-01T01:37:02.848Z,28.00
2022-12-01T01:39:30.922Z,34.37
2022-12-01T01:41:58.551Z,35.53
2022-12-01T01:44:50.289Z,34.63
2022-12-01T01:47:18.656Z,34.23
2022-12-01T01:49:47.048Z,36.27
2022-12-01T01:52:14.892Z,37.10
2022-12-01T01:54:47.416Z,37.37
2022-12-01T01:57:16.349Z,37.77
2022-12-01T01:59:47.804Z,37.40
2022-12-01T02:02:17.174Z,40.67
2022-12-01T02:04:46.874Z,43.17
2022-12-01T02:07:16.605Z,48.40
2022-12-01T02:09:44.385Z,45.50
2022-12-01T02:12:17.912Z,42.33
2022-12-01T02:14:56.125Z,44.03
2022-12-01T02:17:29.856Z,50.03
2022-12-01T02:20:37.282Z,49.33
2022-12-01T02:23:24.925Z,47.63
2022-12-01T02:25:57.881Z,44.67
2022-12-01T02:28:53.272Z,47.03
2022-12-01T02:31:23.694Z,52.13
2022-12-01T02:33:55.165Z,47.93
2022-12-01T02:36:23.710Z,50.03
2022-12-01T02:38:53.408Z,53.70
2022-12-01T02:41:23.194Z,51.30
2022-12-01T02:43:54.223Z,51.33
2022-12-01T02:46:24.862Z,50.13
2022-12-01T02:48:55.199Z,51.00
2022-12-01T02:51:25.006Z,47.93
2022-12-01T02:53:52.926Z,47.77
2022-12-01T02:56:21.832Z,45.70
2022-12-01T02:58:49.657Z,48.93
2022-12-01T03:01:29.024Z,48.20
2022-12-01T03:04:14.743Z,42.40
2022-12-01T03:06:46.016Z,43.70
2022-12-01T03:09:18.911Z,48.67
2022-12-01T03:11:49.483Z,45.77
2022-12-01T03:14:21.698Z,48.80
2022-12-01T03:16:53.003Z,51.30
2022-12-01T03:19:23.242Z,53.07
2022-12-01T03:21:53.082Z,57.57
2022-12-01T03:24:21.635Z,55.93
2022-12-01T03:26:51.789Z,64.00
2022-12-01T03:29:21.476Z,64.73
2022-12-01T03:31:50.356Z,60.47
2022-12-01T03:34:23.086Z,59.07
2022-12-01T03:36:52.313Z,56.97
2022-12-01T03:39:22.075Z,57.07
2022-12-01T03:41:52.911Z,55.93
2022-12-01T03:44:22.079Z,48.10
2022-12-01T03:46:51.200Z,49.50
2022-12-01T03:49:20.261Z,45.77
2022-12-01T03:51:50.997Z,47.80
2022-12-01T03:54:20.378Z,48.10
2022-12-01T03:56:50.091Z,50.47
2022-12-01T03:59:17.738Z,48.67
2022-12-01T04:01:45.946Z,52.97
2022-12-01T04:04:14.529Z,45.03
2022-12-01T04:06:46.113Z,47.77
2022-12-01T04:09:13.795Z,45.70
2022-12-01T04:11:58.797Z,48.47
2022-12-01T04:14:26.589Z,48.87
2022-12-01T04:16:54.246Z,43.00
2022-12-01T04:19:22.024Z,44.70
2022-12-01T04:21:51.066Z,42.73
2022-12-01T04:24:19.795Z,47.50
2022-12-01T04:26:47.414Z,45.70
2022-12-01T04:29:15.210Z,44.53
2022-12-01T04:31:43.018Z,42.43
2022-12-01T04:34:11.066Z,42.60
2022-12-01T04:36:38.793Z,40.90
2022-12-01T04:39:07.874Z,39.07
2022-12-01T04:41:35.590Z,40.00
2022-12-01T04:44:10.425Z,43.73
2022-12-01T04:46:38.143Z,49.20
2022-12-01T04:49:06.155Z,56.47
2022-12-01T04:51:33.851Z,47.30
2022-12-01T04:54:09.752Z,50.37
2022-12-01T04:56:37.582Z,48.07
2022-12-01T04:59:05.337Z,50.03
2022-12-01T05:01:33.505Z,47.73
2022-12-01T05:04:02.380Z,50.30
2022-12-01T05:06:30.370Z,50.17
2022-12-01T05:08:58.989Z,56.30
2022-12-01T05:11:29.079Z,55.43
2022-12-01T05:13:57.174Z,58.97
2022-12-01T05:16:26.312Z,62.37
2022-12-01T05:19:15.501Z,61.47
2022-12-01T05:21:42.989Z,62.27
2022-12-01T05:24:10.843Z,67.17
2022-12-01T05:26:40.246Z,68.70
2022-12-01T05:29:08.116Z,76.33
2022-12-01T05:31:36.161Z,75.93
2022-12-01T05:34:03.987Z,63.50
2022-12-01T05:36:31.852Z,64.77
2022-12-01T05:38:59.490Z,64.10
2022-12-01T05:41:28.302Z,60.00
2022-12-01T05:43:57.334Z,59.57
2022-12-01T05:46:25.201Z,54.63
2022-12-01T05:48:53.169Z,48.27
2022-12-01T05:51:21.111Z,50.63
2022-12-01T05:53:48.749Z,49.00
2022-12-01T05:56:16.896Z,53.93
2022-12-01T05:58:44.667Z,46.43
2022-12-01T06:01:13.777Z,45.10
2022-12-01T06:03:43.032Z,51.47
2022-12-01T06:06:10.938Z,45.00
2022-12-01T06:08:40.845Z,47.13
2022-12-01T06:11:08.589Z,46.27
2022-12-01T06:13:36.251Z,50.43
2022-12-01T06:16:04.910Z,70.30
2022-12-01T06:18:36.175Z,48.40
2022-12-01T06:21:04.170Z,50.43
2022-12-01T06:23:31.909Z,41.10
2022-12-01T06:25:59.623Z,46.33
2022-12-01T06:28:27.241Z,44.77
2022-12-01T06:31:01.071Z,43.60
2022-12-01T06:33:31.455Z,38.77
2022-12-01T06:36:00.901Z,41.43
2022-12-01T06:38:31.256Z,42.73
2022-12-01T06:40:59.101Z,43.40
2022-12-01T06:43:26.773Z,39.40
2022-12-01T06:46:00.893Z,43.30
2022-12-01T06:48:29.529Z,44.13
2022-12-01T06:50:58.200Z,39.57
2022-12-01T06:53:28.432Z,35.10
2022-12-01T06:56:07.632Z,39.13
2022-12-01T06:58:35.666Z,38.13
2022-12-01T07:01:09.197Z,38.73
2022-12-01T07:03:36.937Z,42.43
2022-12-01T07:06:05.077Z,40.50
2022-12-01T07:08:34.358Z,39.00
2022-12-01T07:11:02.826Z,41.87
2022-12-01T07:13:33.816Z,41.23
2022-12-01T07:16:03.129Z,39.77
2022-12-01T07:18:31.257Z,38.23
2022-12-01T07:21:00.496Z,39.20
2022-12-01T07:23:28.447Z,35.00
2022-12-01T07:26:01.041Z,32.47
2022-12-01T07:28:29.212Z,34.13
2022-12-01T07:31:02.752Z,36.87
2022-12-01T07:33:30.830Z,36.83
2022-12-01T07:35:58.500Z,38.53
2022-12-01T07:38:26.247Z,42.03
2022-12-01T07:40:54.091Z,34.17
2022-12-01T07:43:23.435Z,35.97
2022-12-01T07:45:51.140Z,33.13
2022-12-01T07:48:18.823Z,29.37
2022-12-01T07:50:46.662Z,32.40
2022-12-01T07:53:14.390Z,33.40
2022-12-01T07:55:42.159Z,28.30
2022-12-01T07:58:10.111Z,32.47
2022-12-01T08:00:39.248Z,33.40
2022-12-01T08:03:06.940Z,32.10
2022-12-01T08:05:35.883Z,37.73
2022-12-01T08:08:03.680Z,32.13
2022-12-01T08:10:31.436Z,36.20
2022-12-01T08:12:59.069Z,33.90
2022-12-01T08:15:26.842Z,33.83
2022-12-01T08:17:55.860Z,33.40
2022-12-01T08:20:24.576Z,29.40
2022-12-01T08:22:52.168Z,38.40
2022-12-01T08:25:19.820Z,26.70
2022-12-01T08:27:47.575Z,32.33
2022-12-01T08:30:15.665Z,32.93
2022-12-01T08:32:43.281Z,35.63
2022-12-01T08:35:12.377Z,33.90
2022-12-01T08:37:40.005Z,31.93
2022-12-01T08:40:09.152Z,33.60
2022-12-01T08:42:36.785Z,32.27
2022-12-01T08:45:05.385Z,30.90
2022-12-01T08:47:33.135Z,34.43
2022-12-01T08:50:00.756Z,34.50
2022-12-01T08:52:33.811Z,32.83
2022-12-01T08:55:01.597Z,31.07
2022-12-01T08:57:30.008Z,82.53
2022-12-01T08:59:57.653Z,29.50
2022-12-01T09:02:25.580Z,27.07
2022-12-01T09:04:53.256Z,27.13
2022-12-01T09:07:26.063Z,26.47
2022-12-01T09:09:55.960Z,30.67
2022-12-01T09:12:23.807Z,24.80
2022-12-01T09:14:51.462Z,27.10
2022-12-01T09:17:20.191Z,24.90
2022-12-01T09:19:48.418Z,22.03
2022-12-01T09:22:16.230Z,22.53
2022-12-01T09:24:43.831Z,23.50
2022-12-01T09:27:13.191Z,23.00
2022-12-01T09:29:40.835Z,23.77
2022-12-01T09:32:08.432Z,21.57
2022-12-01T09:34:36.211Z,21.03
2022-12-01T09:37:04.034Z,22.50
2022-12-01T09:39:32.139Z,21.43
2022-12-01T09:42:08.462Z,24.43
2022-12-01T09:44:41.055Z,21.30
2022-12-01T09:47:13.332Z,22.03
2022-12-01T09:49:45.660Z,24.53
2022-12-01T09:52:14.683Z,22.47
2022-12-01T09:54:42.283Z,23.77
2022-12-01T09:57:15.657Z,19.80
2022-12-01T09:59:44.665Z,21.33
2022-12-01T10:02:27.549Z,25.60
2022-12-01T10:04:56.024Z,19.03
2022-12-01T10:07:25.734Z,20.43
2022-12-01T10:09:55.831Z,17.67
2022-12-01T10:12:27.682Z,19.03
2022-12-01T10:15:16.150Z,16.20
2022-12-01T10:17:49.849Z,18.00
2022-12-01T10:20:19.760Z,14.10
2022-12-01T10:23:14.847Z,14.60
2022-12-01T10:25:47.078Z,16.00
2022-12-01T10:28:28.187Z,17.43
2022-12-01T10:31:02.842Z,19.10
2022-12-01T10:33:33.790Z,22.47
2022-12-01T10:36:02.138Z,23.97
2022-12-01T10:38:30.735Z,24.10
2022-12-01T10:41:00.774Z,22.87
2022-12-01T10:43:38.389Z,22.13
2022-12-01T10:46:21.875Z,27.17
2022-12-01T10:48:53.806Z,22.47
2022-12-01T10:51:22.582Z,26.87
2022-12-01T10:53:50.357Z,22.03
2022-12-01T10:56:19.173Z,24.70
2022-12-01T10:58:48.498Z,25.90
2022-12-01T11:01:20.620Z,24.43
2022-12-01T11:03:51.422Z,24.13
2022-12-01T11:06:23.062Z,26.40
2022-12-01T11:08:53.132Z,25.03
2022-12-01T11:11:33.311Z,29.50
2022-12-01T11:14:02.790Z,29.70
2022-12-01T11:16:40.101Z,33.37
2022-12-01T11:19:23.586Z,36.67
2022-12-01T11:21:55.710Z,36.97
2022-12-01T11:24:34.025Z,37.60
2022-12-01T11:27:01.724Z,38.53
2022-12-01T11:29:32.841Z,42.03
2022-12-01T11:32:02.352Z,46.03
2022-12-01T11:34:31.239Z,41.83
2022-12-01T11:37:00.370Z,45.57
2022-12-01T11:39:29.156Z,48.37
2022-12-01T11:41:57.418Z,47.60
2022-12-01T11:47:23.178Z,51.57
2022-12-01T11:49:54.635Z,50.10
2022-12-01T11:52:34.721Z,48.77
2022-12-01T11:55:09.740Z,51.90
2022-12-01T11:57:38.951Z,51.63
2022-12-01T12:00:14.276Z,56.63
2022-12-01T12:02:45.593Z,51.03
2022-12-01T12:05:38.850Z,47.40
2022-12-01T12:08:10.075Z,55.53
2022-12-01T12:10:42.892Z,48.30
2022-12-01T12:13:48.788Z,46.97
2022-12-01T12:16:19.622Z,49.07
2022-12-01T12:18:59.467Z,43.13
2022-12-01T12:21:33.030Z,49.03
2022-12-01T12:24:09.458Z,46.30
2022-12-01T12:26:40.336Z,53.97
2022-12-01T12:29:22.514Z,49.37
2022-12-01T12:31:56.072Z,43.03
2022-12-01T12:34:34.087Z,49.20
2022-12-01T12:37:08.309Z,50.30
2022-12-01T12:40:00.250Z,46.33
2022-12-01T12:42:37.267Z,48.70
2022-12-01T12:45:07.691Z,48.00
2022-12-01T12:47:43.340Z,44.67
2022-12-01T12:50:19.058Z,48.30
2022-12-01T12:52:47.762Z,49.07
2022-12-01T12:55:19.805Z,44.33
2022-12-01T12:57:49.322Z,47.90
2022-12-01T13:00:18.819Z,45.20
2022-12-01T13:02:48.486Z,44.13
2022-12-01T13:05:19.915Z,46.97
2022-12-01T13:07:49.440Z,48.50
2022-12-01T13:10:23.894Z,46.07
2022-12-01T13:12:57.232Z,47.70
2022-12-01T13:15:25.076Z,51.33
2022-12-01T13:17:55.643Z,48.97
2022-12-01T13:20:27.592Z,51.50
2022-12-01T13:22:55.479Z,51.03
2022-12-01T13:25:26.086Z,51.10
2022-12-01T13:27:53.825Z,49.23
2022-12-01T13:30:23.315Z,52.20
2022-12-01T13:32:51.224Z,50.83
2022-12-01T13:35:23.555Z,49.50
2022-12-01T13:37:52.958Z,49.27
2022-12-01T13:40:22.038Z,48.37
2022-12-01T13:42:56.784Z,57.60
2022-12-01T13:45:24.594Z,53.80
2022-12-01T13:47:54.325Z,52.47
2022-12-01T13:51:01.825Z,55.13
2022-12-01T13:53:35.322Z,55.67
2022-12-01T13:56:25.941Z,53.83
2022-12-01T13:58:54.472Z,56.80
2022-12-01T14:01:47.516Z,52.13
2022-12-01T14:04:39.448Z,51.47
2022-12-01T14:07:35.722Z,51.20
2022-12-01T14:10:25.672Z,53.60
2022-12-01T14:12:54.106Z,49.87
2022-12-01T14:15:24.896Z,52.03
2022-12-01T14:18:00.230Z,51.07
2022-12-01T14:20:28.059Z,52.53
2022-12-01T14:23:05.012Z,50.67
2022-12-01T14:25:34.179Z,54.67
2022-12-01T14:28:03.021Z,54.07
2022-12-01T14:31:06.340Z,56.57
2022-12-01T14:34:01.338Z,50.07
2022-12-01T14:36:36.748Z,49.00
2022-12-01T14:39:06.497Z,48.50
2022-12-01T14:41:40.916Z,46.20
2022-12-01T14:44:11.270Z,49.63
2022-12-01T14:46:41.666Z,48.13
2022-12-01T14:49:13.100Z,51.00
2022-12-01T14:51:42.866Z,51.43
2022-12-01T14:54:11.443Z,51.00
2022-12-01T14:56:40.730Z,52.27
2022-12-01T14:59:16.099Z,51.77
2022-12-01T15:01:44.021Z,50.33
2022-12-01T15:04:11.993Z,51.53
2022-12-01T15:06:39.870Z,49.87
2022-12-01T15:12:00.728Z,54.57
2022-12-01T15:14:33.268Z,56.17
2022-12-01T15:17:02.525Z,57.83
2022-12-01T15:19:35.598Z,54.53
2022-12-01T15:22:08.071Z,50.37
2022-12-01T15:24:35.897Z,59.77
2022-12-01T15:27:06.060Z,55.80
2022-12-01T15:29:35.943Z,68.27
2022-12-01T15:32:05.989Z,53.67
2022-12-01T15:34:36.229Z,52.80
2022-12-01T15:37:04.889Z,55.17
2022-12-01T15:39:35.057Z,57.10
2022-12-01T15:42:03.028Z,50.87
2022-12-01T15:44:33.467Z,52.73
2022-12-01T15:47:01.238Z,52.17
2022-12-01T15:49:30.046Z,55.17
2022-12-01T15:52:08.873Z,47.73
2022-12-01T15:54:36.706Z,49.53
2022-12-01T15:57:04.544Z,53.30
2022-12-01T15:59:36.528Z,46.60
2022-12-01T16:02:29.068Z,49.33
2022-12-01T16:05:05.194Z,51.57
2022-12-01T16:08:10.865Z,51.57
2022-12-01T16:10:30.077Z,51.20
2022-12-01T16:13:31.018Z,56.83
2022-12-01T16:16:00.213Z,57.97
2022-12-01T16:18:30.802Z,53.97
2022-12-01T16:21:03.028Z,56.00
2022-12-01T16:23:30.827Z,56.67
2022-12-01T16:26:01.905Z,52.63
2022-12-01T16:28:35.398Z,52.47
2022-12-01T16:31:06.909Z,51.47
2022-12-01T16:33:37.524Z,50.60
2022-12-01T16:36:05.538Z,55.17
2022-12-01T16:38:33.293Z,52.17
2022-12-01T16:41:01.729Z,53.43
2022-12-01T16:43:29.986Z,55.73
2022-12-01T16:46:00.443Z,56.00
2022-12-01T16:48:29.775Z,59.17
2022-12-01T16:50:57.859Z,50.17
2022-12-01T16:53:25.576Z,52.10
2022-12-01T16:55:54.466Z,56.03
2022-12-01T16:58:22.485Z,51.23
2022-12-01T17:00:52.612Z,55.73
2022-12-01T17:03:21.064Z,71.90
2022-12-01T17:05:50.210Z,54.73
2022-12-01T17:08:18.093Z,57.57
2022-12-01T17:10:47.194Z,56.87
2022-12-01T17:13:15.009Z,58.00
2022-12-01T17:15:43.163Z,58.87
2022-12-01T17:18:11.067Z,58.43
2022-12-01T17:20:38.995Z,60.73
2022-12-01T17:23:08.093Z,58.33
2022-12-01T17:25:35.914Z,59.90
2022-12-01T17:30:34.978Z,61.37
2022-12-01T17:33:02.639Z,58.90
2022-12-01T17:35:30.333Z,61.10
2022-12-01T17:37:57.999Z,58.37
2022-12-01T17:40:27.003Z,61.23
2022-12-01T17:42:54.674Z,54.30
2022-12-01T17:45:22.295Z,54.37
2022-12-01T17:47:50.025Z,53.30
2022-12-01T17:50:17.988Z,53.97
2022-12-01T17:52:45.651Z,52.70
2022-12-01T17:55:13.365Z,51.87
2022-12-01T17:57:42.441Z,54.20
2022-12-01T18:00:11.438Z,56.00
2022-12-01T18:02:39.212Z,52.07
2022-12-01T18:05:07.723Z,51.00
2022-12-01T18:07:35.500Z,57.93
2022-12-01T18:10:03.146Z,50.43
2022-12-01T18:12:30.873Z,53.13
2022-12-01T18:14:59.847Z,53.10
2022-12-01T18:17:27.865Z,50.97
2022-12-01T18:19:57.116Z,48.03
2022-12-01T18:22:24.895Z,46.70
2022-12-01T18:24:52.811Z,55.27
2022-12-01T18:27:20.879Z,52.57
2022-12-01T18:30:00.304Z,52.20
2022-12-01T18:32:29.326Z,52.67
2022-12-01T18:34:57.109Z,50.47
2022-12-01T18:37:24.802Z,50.73
2022-12-01T18:39:52.614Z,48.87
2022-12-01T18:42:20.307Z,50.63
2022-12-01T18:44:48.823Z,51.13
2022-12-01T18:47:17.132Z,51.93
2022-12-01T18:49:46.628Z,52.60
2022-12-01T18:52:14.264Z,49.60
2022-12-01T18:54:42.945Z,47.97
2022-12-01T18:57:11.798Z,45.80
2022-12-01T18:59:39.607Z,45.73
2022-12-01T19:02:07.530Z,44.53
2022-12-01T19:04:35.269Z,45.40
2022-12-01T19:07:04.317Z,32.67
2022-12-01T19:09:32.003Z,32.80
2022-12-01T19:12:00.636Z,48.07
2022-12-01T19:14:28.999Z,40.17
2022-12-01T19:16:56.837Z,29.90
2022-12-01T19:19:24.503Z,32.33
2022-12-01T19:21:53.103Z,36.67
2022-12-01T19:24:23.433Z,32.17
2022-12-01T19:26:51.027Z,34.43
2022-12-01T19:29:18.876Z,35.10
2022-12-01T19:31:46.666Z,33.03
2022-12-01T19:34:14.355Z,27.53
2022-12-01T19:36:42.156Z,31.70
2022-12-01T19:39:10.133Z,28.17
2022-12-01T19:41:39.533Z,25.93
2022-12-01T19:44:07.249Z,23.93
2022-12-01T19:46:34.888Z,29.80
2022-12-01T19:49:04.882Z,27.23
2022-12-01T19:51:34.868Z,25.80
2022-12-01T19:54:03.303Z,25.47
2022-12-01T19:56:31.437Z,29.87
2022-12-01T19:59:00.590Z,55.30
2022-12-01T20:01:28.503Z,30.93
2022-12-01T20:03:56.483Z,24.93
2022-12-01T20:06:25.123Z,29.60
2022-12-01T20:08:52.956Z,28.13
2022-12-01T20:11:20.645Z,31.73
2022-12-01T20:13:48.419Z,32.77
2022-12-01T20:16:18.460Z,27.93
2022-12-01T20:18:46.418Z,32.13
2022-12-01T20:21:17.115Z,36.30
2022-12-01T20:23:44.956Z,32.73
2022-12-01T20:26:12.550Z,31.93
2022-12-01T20:28:40.455Z,27.10
2022-12-01T20:31:10.164Z,31.67
2022-12-01T20:33:39.201Z,35.03
2022-12-01T20:36:07.085Z,32.10
2022-12-01T20:38:34.816Z,29.30
2022-12-01T20:41:02.456Z,30.20
2022-12-01T20:43:30.081Z,28.73
2022-12-01T20:45:57.767Z,33.07
2022-12-01T20:48:25.968Z,32.57
2022-12-01T20:50:55.026Z,32.37
2022-12-01T20:53:22.709Z,27.70
2022-12-01T20:55:50.340Z,32.80
2022-12-01T20:58:17.979Z,35.10
2022-12-01T21:00:45.728Z,29.77
2022-12-01T21:03:13.516Z,34.83
2022-12-01T21:05:41.233Z,29.43
2022-12-01T21:08:11.558Z,32.13
2022-12-01T21:10:39.341Z,32.97
2022-12-01T21:13:34.116Z,36.03
2022-12-01T21:16:05.830Z,36.57
2022-12-01T21:18:40.136Z,34.47
2022-12-01T21:21:16.278Z,35.37
2022-12-01T21:23:45.237Z,32.90
2022-12-01T21:26:14.315Z,30.43
2022-12-01T21:28:42.997Z,39.17
2022-12-01T21:31:12.801Z,34.60
2022-12-01T21:33:40.723Z,33.73
2022-12-01T21:36:13.330Z,34.80
2022-12-01T21:38:41.721Z,39.27
2022-12-01T21:41:15.495Z,36.97
2022-12-01T21:43:43.121Z,26.23
2022-12-01T21:46:14.173Z,34.57
2022-12-01T21:48:41.877Z,32.67
2022-12-01T21:51:13.712Z,39.57
2022-12-01T21:53:41.340Z,31.63
2022-12-01T21:56:13.187Z,35.33
2022-12-01T21:58:40.877Z,38.63
2022-12-01T22:01:16.185Z,37.03
2022-12-01T22:03:44.960Z,36.37
2022-12-01T22:06:29.772Z,39.07
2022-12-01T22:08:59.785Z,37.77
2022-12-01T22:11:30.515Z,37.20
2022-12-01T22:14:02.001Z,38.97
2022-12-01T22:16:30.529Z,39.70
2022-12-01T22:18:58.727Z,38.67
2022-12-01T22:21:32.968Z,38.83
2022-12-01T22:24:22.803Z,34.27
2022-12-01T22:26:53.933Z,39.47
2022-12-01T22:29:31.407Z,37.33
2022-12-01T22:32:19.772Z,39.37
2022-12-01T22:34:51.656Z,39.23
2022-12-01T22:37:22.113Z,37.50
2022-12-01T22:39:50.920Z,40.80
2022-12-01T22:42:21.786Z,37.47
2022-12-01T22:44:49.708Z,31.60
2022-12-01T22:47:17.475Z,32.50
2022-12-01T22:49:45.132Z,33.60
2022-12-01T22:52:16.635Z,32.87
2022-12-01T22:54:44.653Z,35.43
2022-12-01T22:57:32.887Z,32.30
2022-12-01T23:00:03.465Z,36.83
2022-12-01T23:02:33.777Z,35.50
2022-12-01T23:05:02.257Z,35.40
2022-12-01T23:07:31.864Z,32.47
2022-12-01T23:10:03.700Z,34.47
2022-12-01T23:12:33.160Z,29.37
2022-12-01T23:15:01.703Z,32.30
2022-12-01T23:17:32.088Z,32.90
2022-12-01T23:20:18.360Z,29.27
2022-12-01T23:22:46.094Z,32.57
2022-12-01T23:25:15.511Z,31.50
2022-12-01T23:30:13.696Z,30.90
2022-12-01T23:32:41.369Z,30.67
2022-12-01T23:35:11.671Z,31.03
2022-12-01T23:37:40.201Z,31.50
2022-12-01T23:40:16.057Z,31.60
2022-12-01T23:42:43.677Z,56.23
2022-12-01T23:45:15.613Z,31.37
2022-12-01T23:47:43.215Z,35.87
2022-12-01T23:50:20.032Z,31.13
2022-12-01T23:52:47.802Z,31.83
2022-12-01T23:55:18.914Z,28.70
2022-12-01T23:57:46.506Z,30.17
